Pageland, South Carolina
Current Conditions -  °F | °C
As of 4:53 AM on Thursday 27 Nov 2014 (Local Time) from KEQY Reporting Station
Overcast Overcast  
Wind Chill:   Ceiling: 7000
Heat Index:   Visibility: 10mi
Dew Point:   Wind: 6mph
Humidity: 73%   Direction: 210°SSW
Pressure: 29.96"   Gusts: NA
Location:  34.77°N, 80.39°W
Report Text: KEQY 270953Z AUTO 21005KT 10SM OVC070 05/01 A2996 RMK AO2 SLP162 T00500006
Loading
Personal Weather Stations






























Interactive Weather Map New forecast layout! Learn more

10-Day Weather Forecast

Advertisements
Track Severe Weather on mobile